Thunder radar more information blitzortung!


Radar de pluja more information rain snow radar


Visita la nostra xarxa de llocs de meteo:

Template documentation
and downloads

And another site



No particular awareness of the weather is required.    There are no Weather-warnings

Pagina Historial Weather Underground text

Diari Resum Juliol 9, 2017 Unitats:  Mètric    Imperial   Tant
« Previous Dia
SegĂźent Dia »
Diari Setmana Mensual Anual Personalitzada
  Maxima: Minima: Media:
Temperatura: -17.8 °C -7.1 °C -3.1 °C
Punt de rosada: -17.8 °C -9.6 °C -8.6 °C
Humitat: Humidity % 37 % 57 %
Wind Speed: 0 km/h 0 km/h 11.6 km/h
RĂ fegues de vent: 0 km/h - -
Vent:- - SSE
Pression baro: 0 hPa 34164.7 hPa -
Precipitacions: 25.4 mm    
Historical Graphs
 
 
Dades de taula per Juliol 9, 2017
Temps Temperatura Punt de rosada Pression baro Vent Wind Speed RĂ fegues de vent Humitat Rainfall Rate (Hourly)
-17.8 °C -17.8 °C 0 hPa Calm     Humidity % 0 mm
00:00 -6.6 °C -9.4 °C 34164.7 hPa SW 2.6 km/h 7.7 km/h 72 % 0 mm
00:03 -5.3 °C -7.7 °C 34256.2 hPa West 3.1 km/h   76 % 0 mm
00:10 -6.6 °C -9.4 °C 34164.7 hPa SW 5.1 km/h 7.7 km/h 72 % 0 mm
00:20 -6.3 °C -9.3 °C 34164.7 hPa WSW 5.1 km/h 7.7 km/h 71 % 0 mm
00:30 -6.3 °C -9.3 °C 34198.6 hPa WSW 2.6 km/h 5.1 km/h 71 % 0 mm
00:40 -6.4 °C -9.5 °C 34198.6 hPa Calm   5.1 km/h 71 % 0 mm
00:50 -6.7 °C -9.6 °C 34198.6 hPa SW 5.1 km/h 7.7 km/h 72 % 0 mm
01:00 -6.8 °C -9.4 °C 34198.6 hPa SW 2.6 km/h 5.1 km/h 74 % 0 mm
01:10 -6.9 °C -9.6 °C 34198.6 hPa SW 2.6 km/h 5.1 km/h 74 % 0 mm
01:20 -6.9 °C -9.5 °C 34198.6 hPa SW 2.6 km/h 2.6 km/h 75 % 0 mm
01:30 -7 °C -9.4 °C 34198.6 hPa Calm   2.6 km/h 76 % 0 mm
01:40 -7 °C -9.4 °C 34198.6 hPa East 2.6 km/h 2.6 km/h 76 % 0 mm
01:50 -7 °C -9.4 °C 34198.6 hPa Calm   5.1 km/h 76 % 0 mm
02:00 -7.1 °C -9.5 °C 34198.6 hPa West 2.6 km/h 5.1 km/h 76 % 0 mm
02:10 -7 °C -9.4 °C 34198.6 hPa WSW 2.6 km/h 7.7 km/h 76 % 0 mm
02:20 -6.9 °C -9.2 °C 34198.6 hPa SW 5.1 km/h 7.7 km/h 77 % 0 mm
02:30 -6.8 °C -9.1 °C 34198.6 hPa SW 5.1 km/h 7.7 km/h 77 % 0 mm
02:40 -6.6 °C -8.8 °C 34198.6 hPa Calm   7.7 km/h 77 % 0 mm
02:50 -6 °C -8.4 °C 34198.6 hPa SSE 2.6 km/h 5.1 km/h 76 % 0 mm
03:00 -5.9 °C -8.6 °C 34198.6 hPa SSE 2.6 km/h 5.1 km/h 74 % 0 mm
03:10 -5.7 °C -8.4 °C 34198.6 hPa SSW 2.6 km/h 2.6 km/h 74 % 0 mm
03:20 -5.5 °C -8.3 °C 34198.6 hPa SSW 2.6 km/h 5.1 km/h 73 % 0 mm
03:30 -5.2 °C -8.3 °C 34198.6 hPa ENE 2.6 km/h 12.9 km/h 71 % 0 mm
03:40 -4.9 °C -8.2 °C 34198.6 hPa NNE 7.7 km/h 7.7 km/h 70 % 0 mm
03:50 -4.7 °C -8 °C 34198.6 hPa NNE 2.6 km/h 5.1 km/h 69 % 0 mm
04:00 -4.6 °C -8.2 °C 34222.3 hPa Calm   7.7 km/h 67 % 0 mm
04:10 -4.2 °C -8.1 °C 34222.3 hPa East 5.1 km/h 7.7 km/h 65 % 0 mm
04:20 -4.2 °C -8.1 °C 34198.6 hPa ENE 2.6 km/h 5.1 km/h 65 % 0 mm
04:30 -3.6 °C -7.8 °C 34222.3 hPa ESE 2.6 km/h 5.1 km/h 63 % 0 mm
04:40 -3.5 °C -7.8 °C 34222.3 hPa SSW 2.6 km/h 5.1 km/h 62 % 0 mm
04:50 -3.5 °C -7.8 °C 34222.3 hPa East 2.6 km/h 7.7 km/h 62 % 0 mm
05:00 -3.3 °C -7.9 °C 34222.3 hPa NNW 2.6 km/h 7.7 km/h 60 % 0 mm
05:10 -3.3 °C -7.9 °C 34222.3 hPa WNW 5.1 km/h 15.6 km/h 60 % 0 mm
10:19 -3 °C -7.8 °C 34256.2 hPa WNW 6 km/h 6.3 km/h 59 % 0 mm
10:24 -2.9 °C -7.9 °C 34222.3 hPa SW 15 km/h 15 km/h 58 % 0 mm
10:29 -3.1 °C -8.2 °C 34222.3 hPa WSW 15 km/h 15 km/h 57 % 0 mm
10:34 -3.1 °C -8.2 °C 34222.3 hPa WSW 15 km/h 15 km/h 57 % 0 mm
10:39 -2.9 °C -8 °C 34222.3 hPa WSW 15 km/h 15 km/h 57 % 0 mm
10:44 -2.8 °C -8.1 °C 34222.3 hPa NNW 11.9 km/h 11.9 km/h 56 % 0 mm
10:49 -2.7 °C -8.1 °C 34222.3 hPa SSW 15 km/h 15 km/h 55 % 0 mm
10:54 -2.6 °C -8 °C 34222.3 hPa West 15 km/h 15 km/h 55 % 0 mm
10:59 -2.6 °C -8.1 °C 34222.3 hPa WSW 18.3 km/h 18.3 km/h 55 % 0 mm
11:04 -2.6 °C -8.2 °C 34222.3 hPa SSW 6 km/h 6 km/h 54 % 0 mm
11:09 -2.5 °C -8.1 °C 34222.3 hPa WSW 15 km/h 15 km/h 54 % 0 mm
11:14 -2.2 °C -8 °C 34222.3 hPa WSW 6.8 km/h 6.8 km/h 53 % 0 mm
11:19 -2 °C -7.8 °C 34222.3 hPa SW 8.5 km/h 8.5 km/h 53 % 0 mm
11:24 -2 °C -8 °C 34222.3 hPa West 12.2 km/h 12.2 km/h 52 % 0 mm
11:29 -1.9 °C -7.9 °C 34222.3 hPa West 9 km/h 9 km/h 52 % 0 mm
11:32 -1.7 °C -8.1 °C 34222.3 hPa SW 6 km/h 6 km/h 50 % 0 mm
11:37 -1.4 °C -7.8 °C 34222.3 hPa WSW 9.8 km/h 9.8 km/h 50 % 0 mm
11:42 -1.9 °C -8.2 °C 34198.6 hPa SW 11.9 km/h 11.9 km/h 50 % 0 mm
11:47 -1.8 °C -8.2 °C 34198.6 hPa SSW 11.9 km/h 11.9 km/h 50 % 0 mm
11:52 -1.8 °C -8.2 °C 34198.6 hPa WSW 15.3 km/h 15.3 km/h 50 % 0 mm
11:57 -1.7 °C -8.4 °C 34222.3 hPa SW 17.9 km/h 17.9 km/h 48 % 0 mm
12:02 -1.5 °C -8.2 °C 34222.3 hPa South 9 km/h 9 km/h 48 % 0 mm
12:07 -1.4 °C -8.4 °C 34222.3 hPa West 20.9 km/h 20.9 km/h 47 % 0 mm
12:12 -1.4 °C -8.4 °C 34222.3 hPa South 17.9 km/h 17.9 km/h 47 % 0 mm
12:17 -1.3 °C -8.3 °C 34222.3 hPa WSW 15 km/h 15 km/h 47 % 0 mm
12:22 -1.1 °C -8.2 °C 34222.3 hPa SSW 6 km/h 6 km/h 46 % 0 mm
12:27 -0.8 °C -8 °C 34222.3 hPa SW 6 km/h 6 km/h 46 % 0 mm
12:32 -0.9 °C -8.1 °C 34222.3 hPa WSW 11.9 km/h 11.9 km/h 46 % 0 mm
12:37 -0.9 °C -8.3 °C 34222.3 hPa NNE 11.9 km/h 11.9 km/h 45 % 0 mm
12:42 -0.9 °C -8.3 °C 34198.6 hPa SSW 15 km/h 15 km/h 45 % 0 mm
12:47 -1.1 °C -8.7 °C 34198.6 hPa NNW 20.9 km/h 20.9 km/h 44 % 0 mm
12:52 -1.1 °C -8.7 °C 34198.6 hPa WSW 11.9 km/h 11.9 km/h 44 % 0 mm
12:57 -0.9 °C -8.5 °C 34222.3 hPa SW 14 km/h 14 km/h 44 % 0 mm
13:02 -0.6 °C -8.2 °C 34222.3 hPa SSE 9 km/h 9 km/h 44 % 0 mm
13:07 -0.4 °C -8.3 °C 34222.3 hPa SW 9 km/h 9 km/h 43 % 0 mm
13:12 -0.3 °C -8.1 °C 34198.6 hPa South 11.9 km/h 11.9 km/h 43 % 0 mm
13:17 -0.4 °C -8.3 °C 34198.6 hPa SW 9 km/h 9 km/h 43 % 0 mm
13:22 -0.4 °C -8.4 °C 34198.6 hPa WSW 15 km/h 15 km/h 42 % 0 mm
13:27 -0.4 °C -8.4 °C 34222.3 hPa SW 11.9 km/h 11.9 km/h 42 % 0 mm
13:32 -0.3 °C -8.3 °C 34222.3 hPa SW 11.9 km/h 11.9 km/h 42 % 0 mm
13:37 -0.2 °C -8.4 °C 34222.3 hPa West 11.9 km/h 11.9 km/h 41 % 0 mm
13:42 -0.3 °C -8.5 °C 34222.3 hPa West 15 km/h 15 km/h 41 % 0 mm
13:47 -0.6 °C -8.6 °C 34222.3 hPa South 15 km/h 15 km/h 42 % 0 mm
13:52 -0.6 °C -9 °C 34222.3 hPa WSW 11.1 km/h 11.1 km/h 40 % 0 mm
13:57 -0.5 °C -8.7 °C 34198.6 hPa WSW 14 km/h 14 km/h 41 % 0 mm
14:02 -0.3 °C -8.8 °C 34198.6 hPa NW 15 km/h 15 km/h 40 % 0 mm
14:07 -0.7 °C -9.1 °C 34198.6 hPa ESE 14 km/h 14 km/h 40 % 0 mm
14:12 -0.6 °C -9.1 °C 34164.7 hPa SW 15 km/h 15 km/h 40 % 0 mm
14:17 -0.7 °C -9.1 °C 34164.7 hPa ENE 15 km/h 15 km/h 40 % 0 mm
14:22 -0.5 °C -9.2 °C 34164.7 hPa NE 9.3 km/h 9.3 km/h 39 % 0 mm
14:27 -0.7 °C -9.1 °C 34198.6 hPa WSW 15 km/h 15 km/h 40 % 0 mm
14:32 -0.7 °C -9.1 °C 34198.6 hPa South 11.9 km/h 11.9 km/h 40 % 0 mm
14:37 -0.4 °C -9.1 °C 34198.6 hPa West 9.8 km/h 10.3 km/h 39 % 0 mm
14:42 -0.5 °C -9.2 °C 34198.6 hPa South 9 km/h 9 km/h 39 % 0 mm
14:47 -0.2 °C -9.1 °C 34198.6 hPa East 9 km/h 9 km/h 38 % 0 mm
14:52 -0.3 °C -9 °C 34198.6 hPa SW 15 km/h 15 km/h 39 % 0 mm
14:57 -0.7 °C -9.1 °C 34198.6 hPa SW 15 km/h 15 km/h 40 % 0 mm
15:02 -0.2 °C -8.7 °C 34198.6 hPa SW 15 km/h 15 km/h 40 % 0 mm
15:07 -0.1 °C -8.8 °C 34198.6 hPa South 11.9 km/h 11.9 km/h 39 % 0 mm
15:12 -0.1 °C -8.8 °C 34198.6 hPa South 11.9 km/h 11.9 km/h 39 % 0 mm
15:17 -0.6 °C -9.2 °C 34198.6 hPa South 15 km/h 15 km/h 39 % 0 mm
15:22 -0.8 °C -9.2 °C 34198.6 hPa WSW 15 km/h 15 km/h 40 % 0 mm
15:27 -0.8 °C -9.2 °C 34198.6 hPa SSW 9 km/h 9 km/h 40 % 0 mm
15:32 -1 °C -9.2 °C 34198.6 hPa SSW 11.9 km/h 11.9 km/h 41 % 0 mm
15:37 -1.1 °C -9.3 °C 34198.6 hPa South 15 km/h 15 km/h 41 % 0 mm
15:42 -0.8 °C -9 °C 34198.6 hPa WSW 11.9 km/h 11.9 km/h 41 % 0 mm
15:47 -0.9 °C -9.1 °C 34198.6 hPa SW 20.9 km/h 20.9 km/h 41 % 0 mm
15:52 -0.9 °C -9.1 °C 34198.6 hPa West 23.3 km/h 23.3 km/h 41 % 0 mm
15:57 -0.7 °C -8.9 °C 34198.6 hPa West 11.9 km/h 11.9 km/h 41 % 0 mm
16:02 -0.2 °C -8.7 °C 34198.6 hPa South 15 km/h 15 km/h 40 % 0 mm
16:07 -0.3 °C -9 °C 34198.6 hPa West 11.9 km/h 11.9 km/h 39 % 0 mm
16:12 -0.1 °C -8.8 °C 34198.6 hPa West 9 km/h 9 km/h 39 % 0 mm
16:17 0.1 °C -8.7 °C 34198.6 hPa SW 14.5 km/h 14.5 km/h 39 % 0 mm
16:22 0.1 °C -8.6 °C 34198.6 hPa South 17.9 km/h 17.9 km/h 39 % 0 mm
16:27 -0.2 °C -9.1 °C 34198.6 hPa SSW 11.9 km/h 11.9 km/h 38 % 0 mm
16:32 0.1 °C -8.9 °C 34198.6 hPa SW 11.9 km/h 11.9 km/h 38 % 0 mm
16:37 -0.4 °C -9.3 °C 34198.6 hPa SW 23.8 km/h 23.8 km/h 38 % 0 mm
16:38 -0.4 °C -9.3 °C 34198.6 hPa South 9 km/h 9 km/h 38 % 0 mm
16:43 -0.6 °C -9.4 °C 34198.6 hPa SW 20.9 km/h 20.9 km/h 38 % 0 mm
16:48 -0.9 °C -9.5 °C 34198.6 hPa SW 23.8 km/h 23.8 km/h 39 % 0 mm
16:53 -0.4 °C -9.1 °C 34198.6 hPa SW 15 km/h 15 km/h 39 % 0 mm
16:58 -0.3 °C -9 °C 34198.6 hPa SSW 20.9 km/h 20.9 km/h 39 % 0 mm
17:03 -0.1 °C -9.1 °C 34198.6 hPa SW 17.9 km/h 17.9 km/h 38 % 0 mm
17:08 0 °C -8.9 °C 34198.6 hPa SW 26.9 km/h 26.9 km/h 38 % 0 mm
17:09 -0.1 °C -9 °C 34198.6 hPa SSW 17.9 km/h 17.9 km/h 38 % 0 mm
17:14 -0.2 °C -9.1 °C 34198.6 hPa West 15 km/h 15 km/h 38 % 0 mm
17:19 0 °C -8.9 °C 34198.6 hPa South 20.9 km/h 20.9 km/h 38 % 0 mm
17:24 -0.2 °C -9.1 °C 34198.6 hPa SSW 17.9 km/h 17.9 km/h 38 % 0 mm
17:29 -0.3 °C -9.2 °C 34198.6 hPa South 25.4 km/h 25.4 km/h 38 % 0 mm
17:34 -0.3 °C -9.5 °C 34198.6 hPa SSW 20.9 km/h 20.9 km/h 37 % 0 mm
17:39 -0.7 °C -9.6 °C 34198.6 hPa SSW 29.8 km/h 29.8 km/h 38 % 0 mm
17:44 -0.9 °C -9.6 °C 34198.6 hPa SSW 15 km/h 15 km/h 39 % 0 mm
17:49 -1 °C -9.6 °C 34198.6 hPa WSW 17.9 km/h 17.9 km/h 39 % 0 mm
17:54 -0.9 °C -9.6 °C 34198.6 hPa South 19.2 km/h 19.2 km/h 39 % 0 mm
17:59 -1.2 °C -9.6 °C 34198.6 hPa West 17.9 km/h 17.9 km/h 40 % 0 mm
18:04 -0.9 °C -9.3 °C 34198.6 hPa SW 15 km/h 15 km/h 40 % 0 mm
18:09 -0.9 °C -9.3 °C 34164.7 hPa SW 9 km/h 9 km/h 40 % 0 mm
18:14 -0.9 °C -9.3 °C 34164.7 hPa SSE 15 km/h 15 km/h 40 % 0 mm
18:19 -0.8 °C -9.2 °C 34164.7 hPa SSW 15 km/h 15 km/h 40 % 0 mm
18:24 -0.6 °C -9.1 °C 34164.7 hPa WSW 15 km/h 15 km/h 40 % 0 mm
18:29 -0.6 °C -9.1 °C 34164.7 hPa SW 17.9 km/h 17.9 km/h 40 % 0 mm
18:34 -0.4 °C -9.1 °C 34164.7 hPa WSW 12.7 km/h 12.7 km/h 39 % 0 mm
18:39 -0.7 °C -9.1 °C 34198.6 hPa SW 29.8 km/h 29.8 km/h 40 % 0 mm
18:44 -0.8 °C -9.2 °C 34198.6 hPa SW 20.9 km/h 20.9 km/h 40 % 0 mm
18:49 -1 °C -9.4 °C 34198.6 hPa SW 17.9 km/h 17.9 km/h 40 % 0 mm
18:54 -1 °C -9.2 °C 34164.7 hPa WSW 11.9 km/h 11.9 km/h 41 % 0 mm
18:59 -0.9 °C -9.1 °C 34164.7 hPa South 15 km/h 15 km/h 41 % 0 mm
19:04 -0.9 °C -9.1 °C 34164.7 hPa WSW 9 km/h 9 km/h 41 % 0 mm
19:09 -0.9 °C -9.1 °C 34198.6 hPa SW 11.9 km/h 11.9 km/h 41 % 0 mm
19:14 -0.9 °C -9.1 °C 34198.6 hPa WSW 12.7 km/h 12.7 km/h 41 % 0 mm
19:19 -1.1 °C -9.3 °C 34198.6 hPa WSW 8.5 km/h 8.5 km/h 41 % 0 mm
19:20 -5.3 °C -7.6 °C 34256.2 hPa NE 7.7 km/h 7.7 km/h 77 % 0 mm
19:24 -1.1 °C -9.3 °C 34198.6 hPa WSW 17.9 km/h 17.9 km/h 41 % 0 mm
19:29 -1.2 °C -9.1 °C 34198.6 hPa SSE 9 km/h 9 km/h 42 % 0 mm
19:34 -1.3 °C -9.3 °C 34198.6 hPa SE 15 km/h 15 km/h 42 % 0 mm
19:39 -1.8 °C -9.3 °C 34198.6 hPa SSW 11.9 km/h 11.9 km/h 44 % 0 mm
19:40 -5.4 °C -7.6 °C 34256.2 hPa NE 7.7 km/h 7.7 km/h 78 % 0 mm
19:44 -2.3 °C -9.1 °C 34198.6 hPa East 32.8 km/h 32.8 km/h 47 % 0 mm
19:49 -2.5 °C -9.2 °C 34198.6 hPa ENE 32.8 km/h 32.8 km/h 48 % 0 mm
19:50 -5.4 °C -7.6 °C 34256.2 hPa NE 5.1 km/h 7.7 km/h 78 % 0 mm
19:54 -2.6 °C -9.1 °C 34198.6 hPa ESE 26.9 km/h 26.9 km/h 49 % 0 mm
19:59 -2.8 °C -9.1 °C 34198.6 hPa ENE 17.9 km/h 17.9 km/h 50 % 0 mm
20:00 -5.4 °C -7.7 °C 34222.3 hPa NE 7.7 km/h 7.7 km/h 78 % 0 mm
20:04 -2.9 °C -8.9 °C 34198.6 hPa ENE 26.9 km/h 26.9 km/h 52 % 0 mm
20:09 -3.1 °C -9 °C 34198.6 hPa East 20.9 km/h 20.9 km/h 52 % 0 mm
20:10 -5.4 °C -7.7 °C 34222.3 hPa NE 5.1 km/h 7.7 km/h 78 % 0 mm
20:14 -3.2 °C -8.9 °C 34198.6 hPa East 17.9 km/h 17.9 km/h 53 % 0 mm
20:19 -3.2 °C -8.8 °C 34198.6 hPa NE 19.6 km/h 19.6 km/h 54 % 0 mm
20:20 -5.5 °C -7.6 °C 34256.2 hPa NE 2.6 km/h 7.7 km/h 79 % 0 mm
20:24 -3.3 °C -8.7 °C 34198.6 hPa ESE 17.9 km/h 17.9 km/h 55 % 0 mm
20:29 -3.3 °C -8.6 °C 34198.6 hPa East 26.9 km/h 26.9 km/h 56 % 0 mm
20:30 -5.5 °C -7.6 °C 34222.3 hPa NE 5.1 km/h 5.1 km/h 79 % 0 mm
20:34 -3.3 °C -8.6 °C 34198.6 hPa East 23.8 km/h 23.8 km/h 56 % 0 mm
20:39 -3.4 °C -8.6 °C 34198.6 hPa East 26.9 km/h 26.9 km/h 57 % 0 mm
20:40 -5.6 °C -7.7 °C 34222.3 hPa NE 2.6 km/h 5.1 km/h 79 % 0 mm
20:44 -3.6 °C -8.5 °C 34198.6 hPa NE 16.1 km/h 16.1 km/h 58 % 0 mm
20:49 -3.6 °C -8.4 °C 34198.6 hPa East 23.8 km/h 23.8 km/h 59 % 0 mm
20:50 -5.6 °C -7.7 °C 34256.2 hPa NE 2.6 km/h 5.1 km/h 79 % 0 mm
20:54 -3.7 °C -8.3 °C 34198.6 hPa SE 15 km/h 15 km/h 60 % 0 mm
20:59 -3.7 °C -8.3 °C 34198.6 hPa ESE 17.9 km/h 17.9 km/h 60 % 0 mm
21:00 -5.6 °C -7.7 °C 34222.3 hPa NE 2.6 km/h 2.6 km/h 79 % 0 mm
21:04 -3.8 °C -8.3 °C 34198.6 hPa East 29.8 km/h 29.8 km/h 61 % 0 mm
21:09 -3.8 °C -8.3 °C 34198.6 hPa ENE 12.7 km/h 12.7 km/h 61 % 0 mm
21:10 -5.7 °C -7.8 °C 34222.3 hPa NE 2.6 km/h 5.1 km/h 79 % 0 mm
21:14 -3.9 °C -8.3 °C 34198.6 hPa East 20.9 km/h 20.9 km/h 62 % 0 mm
21:19 -4.1 °C -8.1 °C 34198.6 hPa East 15 km/h 15 km/h 64 % 0 mm
21:20 -5.7 °C -7.7 °C 34256.2 hPa Calm   5.1 km/h 80 % 0 mm
21:24 -4.1 °C -8.2 °C 34222.3 hPa East 17.9 km/h 17.9 km/h 64 % 0 mm
21:29 -4.1 °C -8 °C 34222.3 hPa ESE 17.9 km/h 17.9 km/h 65 % 0 mm
21:30 -5.8 °C -7.8 °C 34256.2 hPa Calm   2.6 km/h 80 % 0 mm
21:34 -4.2 °C -8 °C 34222.3 hPa NNE 15 km/h 15 km/h 66 % 0 mm
21:39 -4.3 °C -7.9 °C 34222.3 hPa ESE 17.9 km/h 17.9 km/h 67 % 0 mm
21:40 -5.8 °C -7.8 °C 34256.2 hPa Calm     80 % 0 mm
21:44 -4.3 °C -7.9 °C 34222.3 hPa East 15 km/h 15 km/h 67 % 0 mm
21:49 -4.4 °C -8 °C 34222.3 hPa ENE 9 km/h 9 km/h 67 % 0 mm
21:50 -5.9 °C -7.9 °C 34256.2 hPa Calm   2.6 km/h 80 % 0 mm
21:54 -4.4 °C -7.9 °C 34256.2 hPa ENE 9.3 km/h 9.3 km/h 68 % 0 mm
21:59 -4.4 °C -7.9 °C 34256.2 hPa NW 15 km/h 15 km/h 68 % 0 mm
22:00 -5.9 °C -7.9 °C 34256.2 hPa Calm     80 % 0 mm
22:04 -4.6 °C -7.8 °C 34256.2 hPa East 15 km/h 15 km/h 70 % 0 mm
22:09 -4.6 °C -7.7 °C 34256.2 hPa East 15.6 km/h 15.6 km/h 71 % 0 mm
22:10 -6.1 °C -8.1 °C 34256.2 hPa Calm     80 % 0 mm
22:14 -4.6 °C -7.7 °C 34256.2 hPa East 15 km/h 15 km/h 71 % 0 mm
22:19 -4.6 °C -7.7 °C 34256.2 hPa ESE 15 km/h 15 km/h 71 % 0 mm
22:20 -6.1 °C -7.9 °C 34256.2 hPa Calm     81 % 0 mm
22:24 -4.7 °C -7.6 °C 34256.2 hPa North 15 km/h 15 km/h 72 % 0 mm
22:29 -4.7 °C -7.7 °C 34256.2 hPa ENE 23.8 km/h 23.8 km/h 72 % 0 mm
22:30 -6 °C -7.9 °C 34256.2 hPa Calm   2.6 km/h 81 % 0 mm
22:34 -4.7 °C -7.6 °C 34256.2 hPa NNE 11.9 km/h 11.9 km/h 73 % 0 mm
22:39 -4.8 °C -7.6 °C 34256.2 hPa ENE 6.8 km/h 7.6 km/h 73 % 0 mm
22:40 -6.1 °C -7.9 °C 34256.2 hPa NNE 2.6 km/h 2.6 km/h 81 % 0 mm
22:44 -4.8 °C -7.7 °C 34256.2 hPa NNE 9 km/h 9 km/h 73 % 0 mm
22:49 -4.8 °C -7.7 °C 34256.2 hPa ENE 11.9 km/h 11.9 km/h 73 % 0 mm
22:50 -6.1 °C -8 °C 34256.2 hPa Calm     81 % 0 mm
22:54 -4.8 °C -7.6 °C 34222.3 hPa East 9 km/h 9 km/h 74 % 0 mm
22:59 -4.9 °C -7.6 °C 34222.3 hPa ENE 11.9 km/h 11.9 km/h 74 % 0 mm
23:00 -6.2 °C -8 °C 34256.2 hPa Calm     82 % 0 mm
23:04 -4.9 °C -7.6 °C 34222.3 hPa NE 9 km/h 9 km/h 74 % 0 mm
23:09 -4.9 °C -7.6 °C 34222.3 hPa NNE 9 km/h 9 km/h 74 % 0 mm
23:10 -6.2 °C -8 °C 34256.2 hPa Calm   5.1 km/h 82 % 0 mm
23:14 -4.9 °C -7.7 °C 34222.3 hPa NE 11.9 km/h 11.9 km/h 74 % 0 mm
23:19 -4.9 °C -7.7 °C 34222.3 hPa ENE 9 km/h 9 km/h 74 % 0 mm
23:20 -6.3 °C -7.9 °C 34256.2 hPa ENE 2.6 km/h 5.1 km/h 83 % 0 mm
23:24 -5 °C -7.7 °C 34256.2 hPa ENE 9 km/h 9 km/h 74 % 0 mm
23:29 -5 °C -7.7 °C 34256.2 hPa ESE 8 km/h 8 km/h 74 % 0 mm
23:30 -6.3 °C -7.9 °C 34256.2 hPa ENE 2.6 km/h 2.6 km/h 83 % 0 mm
23:34 -5 °C -7.6 °C 34256.2 hPa NE 6.3 km/h 6.3 km/h 75 % 0 mm
23:39 -5.1 °C -7.7 °C 34256.2 hPa NE 6 km/h 6 km/h 75 % 0 mm
23:40 -6.3 °C -7.9 °C 34256.2 hPa NE 2.6 km/h 2.6 km/h 83 % 0 mm
23:44 -5.1 °C -7.6 °C 34256.2 hPa ENE 6.3 km/h 6.3 km/h 76 % 0 mm
23:49 -5.1 °C -7.7 °C 34256.2 hPa ENE 11.1 km/h 11.1 km/h 75 % 0 mm
23:50 -6.4 °C -8.1 °C 34222.3 hPa Calm   7.7 km/h 83 % 0 mm
23:54 -5.1 °C -7.6 °C 34256.2 hPa NNE 9 km/h 9 km/h 76 % 0 mm
23:59 -5.2 °C -7.7 °C 34256.2 hPa ENE 11.9 km/h 11.9 km/h 76 % 0 mm
Meteo Sesrovires
Elogis d' Weather Underground - 1.5 mb

Guio original per  Jim McMurry - jmcmurry@mwt.net Adaptat per a la plantilla per  Wim van der Kuil - Leuven-Template.eu

Trobareu la nostra informacio del temps tambe a:

Weather Underground

AWEKAS